ESMU weather

Möckeln Airport
Älmhult, Kronoberge län, Sweden

Public forecast

Using degrees Celsius for public forecast. Weather courtesy of forecast.io.

METAR (pilot weather report)

Closest report is Växjö Kronoberg Airport, 28.4 nm (52.5 km) NE. Retrieved 2019/07/23 14:20 UTC (14 minutes ago):

ESMX 231420Z 29007KT 250V310 9999 SCT024 BKN040 22/18 Q1018

TAF (pilot weather forecast)

Forecast is more than 12 hours old.

Closest forecast is Växjö Kronoberg Airport, 28.4 nm (52.5 km) NE. Retrieved 2019/06/26 16:36 UTC (27 days ago):

TAF TAF ESMX 261530Z 2616/2724 30009KT 9999 SCT040TCU